Time;durP1;ratioP1;P1;durP2;ratioP2;P2;SDS_P1;SDS_P2;PMS_P1;PMS_P2;Temp;Humidity;BMP_temperature;BMP_pressure;BME280_temperature;BME280_humidity;BME280_pressure;Samples;Min_cycle;Max_cycle;Signal;HPM_P1;HPM_P2
2022/11/30 00:01:17;;;;;;;5.30;3.25;;;23.30;44.30;;;21.84;50.58;96082.97;4889050;28;20325;-44
2022/11/30 00:03:43;;;;;;;4.50;3.40;;;23.30;44.30;;;21.84;50.74;96088.34;4892566;28;20216;-47
2022/11/30 00:06:12;;;;;;;5.38;3.92;;;23.30;44.40;;;21.82;51.21;96090.47;4871682;28;20369;-43
2022/11/30 00:08:38;;;;;;;5.63;3.53;;;23.30;44.30;;;21.81;51.40;96089.66;4871003;28;20508;-45
2022/11/30 00:11:19;;;;;;;4.25;3.28;;;23.30;44.40;;;21.81;50.59;96089.66;4902945;28;20311;-45
2022/11/30 00:13:46;;;;;;;4.70;3.88;;;23.30;44.40;;;21.79;51.00;96097.16;4888045;28;20288;-44
2022/11/30 00:16:12;;;;;;;6.05;4.00;;;23.30;44.40;;;21.80;51.18;96100.63;4902605;28;20371;-44
2022/11/30 00:18:39;;;;;;;5.00;3.65;;;23.30;44.40;;;21.79;50.85;96094.47;4903875;28;20353;-45
2022/11/30 00:21:07;;;;;;;6.25;4.10;;;23.30;44.40;;;21.80;50.86;96093.41;4870104;28;20560;-44
2022/11/30 00:23:38;;;;;;;6.88;4.13;;;23.30;44.30;;;21.79;51.61;96102.50;4871129;28;20304;-43
2022/11/30 00:26:09;;;;;;;5.30;3.83;;;23.30;44.40;;;21.79;50.95;96102.50;4902682;28;20359;-44
2022/11/30 00:28:36;;;;;;;4.78;3.90;;;23.30;44.30;;;21.78;51.23;96097.41;4851206;28;20451;-47
2022/11/30 00:31:04;;;;;;;4.85;3.72;;;23.30;44.30;;;21.79;50.94;96107.06;4904880;28;20419;-45
2022/11/30 00:33:35;;;;;;;5.97;4.28;;;23.30;44.30;;;21.78;51.08;96105.44;4850613;28;20401;-44
2022/11/30 00:36:03;;;;;;;5.57;3.88;;;23.30;44.30;;;21.78;51.42;96105.44;4884020;28;20471;-44
2022/11/30 00:38:31;;;;;;;4.50;4.00;;;23.30;44.30;;;21.76;50.84;96108.38;4867400;28;20673;-43
2022/11/30 00:40:57;;;;;;;5.13;3.80;;;23.30;44.40;;;21.77;50.71;96104.63;4870880;28;20523;-43
2022/11/30 00:43:23;;;;;;;4.82;3.78;;;23.30;44.40;;;21.77;51.03;96103.84;4884003;28;20451;-43
2022/11/30 00:45:49;;;;;;;5.75;4.18;;;23.30;44.40;;;21.77;51.04;96120.69;4865862;28;20404;-45
2022/11/30 00:48:15;;;;;;;6.40;3.88;;;23.30;44.40;;;21.76;51.43;96105.72;4868148;28;20295;-45
2022/11/30 00:50:41;;;;;;;5.20;3.95;;;23.30;44.40;;;21.74;51.26;96113.19;4867096;28;20364;-43
2022/11/30 00:53:07;;;;;;;4.85;3.92;;;23.30;44.50;;;21.76;50.79;96115.63;4867182;28;20365;-43
2022/11/30 00:55:33;;;;;;;5.57;4.20;;;23.30;44.40;;;21.75;51.01;96111.31;4866933;28;20490;-44
2022/11/30 00:58:02;;;;;;;5.72;4.32;;;23.20;44.40;;;21.75;51.57;96120.16;4867217;28;20364;-44
2022/11/30 01:00:28;;;;;;;4.68;3.35;;;23.20;44.50;;;21.75;50.66;96116.69;4883450;28;20349;-45
2022/11/30 01:02:55;;;;;;;5.25;4.03;;;23.30;44.50;;;21.75;51.07;96117.47;4866932;28;20341;-44
2022/11/30 01:05:21;;;;;;;5.38;3.97;;;23.20;44.50;;;21.75;51.07;96116.69;4867161;28;20451;-44
2022/11/30 01:07:47;;;;;;;6.05;4.28;;;23.20;44.50;;;21.73;51.51;96113.41;4851391;28;20296;-45
2022/11/30 01:10:13;;;;;;;5.82;4.20;;;23.20;44.50;;;21.75;51.45;96117.47;4880560;28;20231;-47
2022/11/30 01:12:39;;;;;;;5.70;3.92;;;23.20;44.50;;;21.74;50.99;96120.41;4884699;28;20650;-43
2022/11/30 01:15:06;;;;;;;6.50;4.28;;;23.30;44.50;;;21.72;51.65;96115.28;4885869;28;20320;-45
2022/11/30 01:17:32;;;;;;;5.40;4.30;;;23.20;44.50;;;21.71;51.23;96111.00;4852012;28;20439;-44
2022/11/30 01:19:58;;;;;;;6.65;4.70;;;23.20;44.50;;;21.72;51.45;96120.66;4868741;28;20314;-45
2022/11/30 01:22:24;;;;;;;5.78;4.10;;;23.30;44.50;;;21.72;51.68;96117.97;4869821;28;20369;-43
2022/11/30 01:24:50;;;;;;;5.68;3.97;;;23.30;44.50;;;21.72;51.57;96123.31;4890596;28;20552;-45
2022/11/30 01:27:16;;;;;;;5.70;4.28;;;23.30;44.50;;;21.73;50.99;96119.63;4891041;28;20325;-43
2022/11/30 01:29:42;;;;;;;5.10;4.13;;;23.20;44.50;;;21.70;50.96;96117.44;4853562;28;20181;-47
2022/11/30 01:32:08;;;;;;;4.97;4.25;;;23.30;44.50;;;21.70;52.19;96120.09;4871591;28;20204;-45
2022/11/30 01:34:34;;;;;;;6.35;4.30;;;23.20;44.50;;;21.70;51.29;96123.59;4896805;28;20914;-45
2022/11/30 01:37:00;;;;;;;5.55;3.88;;;23.20;44.50;;;21.69;51.48;96118.50;4923225;28;20319;-46
2022/11/30 01:39:26;;;;;;;5.10;4.10;;;23.20;44.50;;;21.70;51.44;96125.47;4965245;28;20033;-43
2022/11/30 01:41:55;;;;;;;5.70;4.15;;;23.20;44.60;;;21.70;51.72;96130.81;4914480;28;20440;-45
2022/11/30 01:44:25;;;;;;;5.22;4.53;;;23.20;44.50;;;21.69;51.49;96124.66;4915730;28;20061;-42
2022/11/30 01:47:05;;;;;;;5.73;4.13;;;23.20;44.50;;;21.69;51.79;96123.84;4964928;28;20063;-43
2022/11/30 01:49:38;;;;;;;5.30;4.45;;;23.20;44.60;;;21.68;51.57;96119.56;4890360;28;20622;-43
2022/11/30 01:52:09;;;;;;;5.18;4.25;;;23.20;44.50;;;21.68;51.42;96122.22;4873747;28;20336;-46
2022/11/30 01:54:52;;;;;;;5.93;4.20;;;23.20;44.60;;;21.68;51.18;96122.22;4905560;28;20368;-46
2022/11/30 01:57:35;;;;;;;5.82;4.50;;;23.20;44.60;;;21.67;51.46;96131.34;4921340;28;20632;-44
2022/11/30 02:00:08;;;;;;;5.78;4.18;;;23.20;44.50;;;21.66;51.50;96121.69;4871615;28;20435;-44
2022/11/30 02:02:44;;;;;;;6.70;4.30;;;23.20;44.50;;;21.67;51.61;96134.00;4880663;28;20576;-45
2022/11/30 02:05:10;;;;;;;7.32;4.57;;;23.10;44.60;;;21.66;51.30;96133.22;4879707;28;20404;-43
2022/11/30 02:07:36;;;;;;;7.57;4.13;;;23.20;44.50;;;21.66;51.44;96135.06;4860342;28;20361;-45
2022/11/30 02:10:02;;;;;;;5.60;4.22;;;23.20;44.60;;;21.65;51.06;96120.88;4893907;28;20985;-44
2022/11/30 02:13:04;;;;;;;5.65;4.15;;;23.20;44.50;;;21.68;51.46;96127.59;4851250;28;20515;-47
2022/11/30 02:15:40;;;;;;;5.97;4.10;;;23.20;44.60;;;21.66;51.03;96119.00;4891210;28;20763;-43
2022/11/30 02:18:13;;;;;;;6.18;4.35;;;23.10;44.60;;;21.66;51.59;96119.00;4878359;28;20438;-45
2022/11/30 02:21:13;;;;;;;6.82;4.43;;;23.10;44.50;;;21.66;51.87;96109.13;4865851;28;20575;-44
2022/11/30 02:24:21;;;;;;;8.98;4.60;;;23.20;44.60;;;21.65;51.15;96118.22;4871575;28;20447;-44
2022/11/30 02:27:21;;;;;;;6.40;4.72;;;23.10;44.60;;;21.64;51.38;96115.78;4872326;28;20354;-44
2022/11/30 02:30:08;;;;;;;5.78;4.45;;;23.10;44.60;;;21.62;51.69;96112.56;4885933;28;20491;-44
2022/11/30 02:32:57;;;;;;;4.95;4.18;;;23.20;44.60;;;21.63;51.15;96119.53;4872199;28;20368;-48
2022/11/30 02:35:27;;;;;;;5.63;4.53;;;23.10;44.60;;;21.63;51.31;96122.22;4907440;28;20451;-45
2022/11/30 02:37:53;;;;;;;6.78;4.70;;;23.10;44.60;;;21.62;51.18;96128.63;4858688;28;20052;-45
2022/11/30 02:40:19;;;;;;;7.97;4.57;;;23.10;44.60;;;21.62;51.23;96124.09;4869895;28;20292;-47
2022/11/30 02:42:46;;;;;;;5.82;4.70;;;23.10;44.60;;;21.62;50.97;96123.28;4885125;28;20522;-46
2022/11/30 02:45:12;;;;;;;5.82;4.55;;;23.10;44.60;;;21.63;51.30;96132.91;4872195;28;20677;-45
2022/11/30 02:47:54;;;;;;;6.45;4.78;;;23.10;44.60;;;21.63;51.76;96135.59;4884752;28;20365;-46
2022/11/30 02:50:32;;;;;;;6.72;4.80;;;23.10;44.60;;;21.62;51.53;96139.34;4884867;28;20483;-45
2022/11/30 02:52:57;;;;;;;5.80;4.40;;;23.10;44.60;;;21.62;51.67;96131.31;4886576;28;20556;-44
2022/11/30 02:55:24;;;;;;;5.85;4.15;;;23.10;44.60;;;21.62;51.73;96136.66;4873967;28;20174;-44
2022/11/30 02:57:49;;;;;;;5.57;4.45;;;23.10;44.60;;;21.62;51.06;96133.97;4870703;28;20575;-45
2022/11/30 03:00:16;;;;;;;5.88;4.55;;;23.10;44.50;;;21.62;51.75;96139.34;4888856;28;20355;-44
2022/11/30 03:02:42;;;;;;;7.15;4.72;;;23.10;44.60;;;21.62;51.68;96142.00;4922740;28;20248;-45
2022/11/30 03:05:08;;;;;;;6.75;4.72;;;23.10;44.60;;;21.63;51.27;96143.63;4908636;28;20406;-46
2022/11/30 03:07:34;;;;;;;5.60;4.55;;;23.10;44.50;;;21.64;51.42;96148.72;4922194;28;20680;-44
2022/11/30 03:10:00;;;;;;;5.70;4.70;;;23.20;44.50;;;21.66;51.66;96146.59;4892090;28;20442;-45
2022/11/30 03:12:26;;;;;;;6.50;4.90;;;23.30;44.40;;;21.69;51.03;96140.72;4923232;28;20359;-44
2022/11/30 03:14:52;;;;;;;7.88;4.88;;;23.30;44.40;;;21.72;51.51;96142.06;4894158;28;20135;-43
2022/11/30 03:17:18;;;;;;;5.97;4.22;;;23.20;44.40;;;21.75;51.66;96149.63;4924139;28;20514;-45
2022/11/30 03:19:44;;;;;;;7.32;4.70;;;23.20;44.40;;;21.79;50.94;96147.22;4906394;28;20393;-44
2022/11/30 03:22:10;;;;;;;5.25;4.40;;;23.30;44.40;;;21.81;50.89;96150.44;4877890;28;20377;-44
2022/11/30 03:24:36;;;;;;;6.07;4.60;;;23.30;44.30;;;21.83;51.29;96151.78;4890609;28;20299;-45
2022/11/30 03:27:02;;;;;;;6.18;4.68;;;23.30;44.40;;;21.85;51.62;96154.22;4923387;28;20336;-45
2022/11/30 03:29:28;;;;;;;6.03;4.60;;;23.30;44.30;;;21.88;51.14;96151.81;4909921;28;20635;-45
2022/11/30 03:31:54;;;;;;;6.13;4.90;;;23.40;44.30;;;21.89;51.26;96156.09;4867785;28;20428;-46
2022/11/30 03:34:21;;;;;;;7.00;5.00;;;23.40;44.20;;;21.90;51.26;96157.72;4885598;28;20496;-44
2022/11/30 03:36:47;;;;;;;7.03;4.72;;;23.40;44.30;;;21.92;50.25;96158.25;4869070;28;20617;-46
2022/11/30 03:39:13;;;;;;;5.97;4.70;;;23.40;44.30;;;21.94;51.07;96163.38;4853822;28;20361;-46
2022/11/30 03:41:39;;;;;;;5.50;4.57;;;23.40;44.30;;;21.96;50.63;96163.94;4852804;28;20428;-46
2022/11/30 03:44:07;;;;;;;6.20;4.88;;;23.40;44.20;;;21.96;50.70;96162.06;4854271;28;20365;-44
2022/11/30 03:46:34;;;;;;;6.32;4.40;;;23.40;44.30;;;21.97;51.10;96158.31;4830239;28;20324;-46
2022/11/30 03:49:00;;;;;;;7.55;4.35;;;23.50;44.30;;;21.99;51.52;96160.72;4871523;28;20339;-43
2022/11/30 03:51:26;;;;;;;9.23;4.20;;;23.50;44.70;;;22.01;52.16;96164.75;4866254;28;20305;-46
2022/11/30 03:53:52;;;;;;;10.75;4.50;;;23.50;45.10;;;22.00;52.00;96168.50;4862123;28;20490;-43
2022/11/30 03:56:18;;;;;;;5.10;4.22;;;23.50;45.60;;;22.01;52.82;96164.75;4882778;28;20368;-46
2022/11/30 03:58:44;;;;;;;8.20;4.97;;;23.50;45.70;;;22.03;52.60;96167.19;4872366;28;20365;-44
2022/11/30 04:01:15;;;;;;;6.50;4.80;;;23.50;45.30;;;22.04;52.12;96160.78;4860098;28;20388;-45
2022/11/30 04:03:41;;;;;;;6.07;4.40;;;23.50;45.10;;;22.04;52.02;96165.31;4879407;28;20565;-44
2022/11/30 04:06:08;;;;;;;6.80;5.05;;;23.50;44.90;;;22.02;51.48;96161.03;4868861;28;20579;-45
2022/11/30 04:08:34;;;;;;;5.60;4.50;;;23.50;44.90;;;22.04;51.76;96168.81;4870677;28;20203;-45
2022/11/30 04:11:01;;;;;;;5.78;4.18;;;23.50;44.80;;;22.03;51.90;96161.81;4867956;28;20939;-46
2022/11/30 04:13:27;;;;;;;7.25;4.80;;;23.50;44.80;;;22.04;51.71;96167.97;4875759;28;20822;-45
2022/11/30 04:15:54;;;;;;;4.65;4.00;;;23.50;44.70;;;22.03;51.15;96156.47;4912771;28;20453;-44
2022/11/30 04:18:20;;;;;;;5.35;4.32;;;23.50;44.70;;;22.02;51.77;96155.66;4856751;28;20481;-43
2022/11/30 04:20:49;;;;;;;6.90;4.18;;;23.50;44.70;;;22.02;51.83;96161.03;4871059;28;20435;-44
2022/11/30 04:23:15;;;;;;;7.03;4.22;;;23.50;44.60;;;22.03;51.42;96161.81;4887133;28;20493;-44
2022/11/30 04:25:41;;;;;;;7.28;4.60;;;23.50;44.70;;;22.02;50.98;96161.03;4886869;28;20583;-44
2022/11/30 04:28:08;;;;;;;5.38;4.28;;;23.50;44.70;;;22.01;51.85;96164.75;4886883;28;20399;-45
2022/11/30 04:30:34;;;;;;;7.80;4.75;;;23.50;44.70;;;22.02;51.80;96166.38;4887914;28;20411;-45
2022/11/30 04:33:00;;;;;;;6.15;4.30;;;23.50;44.70;;;22.00;51.53;96159.66;4906058;28;20580;-47
2022/11/30 04:35:26;;;;;;;8.93;4.40;;;23.50;44.80;;;22.00;51.84;96165.81;4902859;28;20400;-45
2022/11/30 04:37:52;;;;;;;13.82;5.00;;;23.50;45.00;;;22.00;52.64;96167.69;4902891;28;20300;-45
2022/11/30 04:40:18;;;;;;;9.43;5.47;;;23.50;45.20;;;22.00;52.29;96173.06;4900731;28;20332;-44
2022/11/30 04:42:44;;;;;;;10.07;4.93;;;23.50;45.40;;;21.99;51.95;96174.94;4852992;28;20342;-45
2022/11/30 04:45:10;;;;;;;13.70;5.07;;;23.50;45.30;;;22.00;52.55;96167.69;4894840;28;20329;-44
2022/11/30 04:47:36;;;;;;;11.13;5.75;;;23.50;45.80;;;22.01;53.01;96170.13;4890408;28;20315;-46
2022/11/30 04:50:04;;;;;;;11.13;5.47;;;23.50;46.40;;;22.01;54.09;96175.47;4887152;28;20352;-45
2022/11/30 04:52:30;;;;;;;33.17;7.32;;;23.40;47.40;;;22.01;54.33;96175.47;4902865;28;20821;-45
2022/11/30 04:54:56;;;;;;;21.85;7.35;;;23.50;47.00;;;22.00;53.79;96171.19;4894697;28;20045;-49
2022/11/30 04:57:22;;;;;;;19.25;6.00;;;23.50;47.20;;;22.00;54.39;96168.50;5026403;28;20152;-47
2022/11/30 04:59:48;;;;;;;16.25;6.03;;;23.40;46.50;;;21.99;54.20;96171.44;4997581;28;20046;-46
2022/11/30 05:02:13;;;;;;;16.55;6.70;;;23.40;47.20;;;22.01;54.67;96174.66;4986941;28;20374;-46
2022/11/30 05:04:39;;;;;;;15.40;5.97;;;23.40;47.20;;;22.00;54.33;96175.75;4996981;28;20136;-44
2022/11/30 05:07:05;;;;;;;14.90;6.28;;;23.40;47.00;;;21.99;54.29;96177.63;5042583;28;20068;-45
2022/11/30 05:09:31;;;;;;;19.40;5.95;;;23.40;47.10;;;21.99;54.85;96174.94;5029234;28;20400;-45
2022/11/30 05:11:57;;;;;;;13.45;5.68;;;23.40;47.30;;;21.99;55.16;96176.81;5030765;28;20596;-48
2022/11/30 05:14:23;;;;;;;17.10;5.68;;;23.40;47.10;;;21.97;54.03;96174.38;5030608;28;20140;-46
2022/11/30 05:16:49;;;;;;;18.08;6.10;;;23.40;47.10;;;21.97;54.51;96174.38;5026966;28;20133;-44
2022/11/30 05:19:15;;;;;;;14.15;5.80;;;23.40;47.10;;;21.97;54.82;96184.28;5009809;28;20034;-47
2022/11/30 05:21:41;;;;;;;11.35;5.40;;;23.40;47.20;;;21.96;54.83;96182.69;5002549;28;20029;-44
2022/11/30 05:24:07;;;;;;;13.35;5.68;;;23.40;47.00;;;21.95;54.69;96181.88;5002262;28;20044;-47
2022/11/30 05:26:34;;;;;;;11.40;5.70;;;23.40;47.00;;;21.94;54.37;96185.59;4994328;28;20053;-46
2022/11/30 05:29:00;;;;;;;9.60;5.10;;;23.30;47.10;;;21.93;54.46;96181.31;5009882;28;20048;-47
2022/11/30 05:31:26;;;;;;;15.55;6.90;;;23.40;47.00;;;21.92;54.67;96185.03;5032440;28;20474;-46
2022/11/30 05:33:52;;;;;;;12.60;5.43;;;23.40;46.80;;;21.92;54.36;96182.38;5009635;28;20041;-46
2022/11/30 05:36:18;;;;;;;10.68;5.15;;;23.40;46.70;;;21.91;54.95;96186.13;4995687;28;20041;-48
2022/11/30 05:38:44;;;;;;;14.25;5.97;;;23.40;46.70;;;21.90;54.88;96189.84;5029718;28;20060;-48
2022/11/30 05:41:10;;;;;;;12.82;5.60;;;23.40;46.70;;;21.88;54.82;96192.00;5013222;28;20124;-46
2022/11/30 05:43:36;;;;;;;11.95;5.35;;;23.40;46.70;;;21.89;54.51;96196.28;5029443;28;20033;-47
2022/11/30 05:46:03;;;;;;;11.85;6.00;;;23.40;46.80;;;21.88;55.22;96192.00;5047992;28;20048;-48
2022/11/30 05:48:29;;;;;;;11.70;5.50;;;23.30;46.70;;;21.87;54.63;96192.25;5012871;28;20400;-46
2022/11/30 05:50:54;;;;;;;11.65;5.38;;;23.30;46.70;;;21.86;54.93;96187.97;5013623;28;20033;-48
2022/11/30 05:53:20;;;;;;;13.48;5.57;;;23.40;46.70;;;21.85;54.75;96189.84;5011902;28;20045;-45
2022/11/30 05:55:46;;;;;;;10.20;5.68;;;23.30;46.70;;;21.84;55.01;96185.53;4993008;28;20485;-47
2022/11/30 05:58:12;;;;;;;9.27;5.63;;;23.30;46.60;;;21.84;55.01;96190.09;4976843;28;20037;-48
2022/11/30 06:00:37;;;;;;;9.82;5.60;;;23.30;46.70;;;21.83;54.46;96191.16;5009729;28;20074;-46
2022/11/30 06:03:03;;;;;;;9.85;5.80;;;23.30;46.60;;;21.83;54.36;96188.47;5010062;28;20523;-49
2022/11/30 06:05:29;;;;;;;9.20;5.20;;;23.30;46.60;;;21.82;54.51;96192.22;5026639;28;20049;-49
2022/11/30 06:07:57;;;;;;;7.93;4.85;;;23.30;46.50;;;21.82;54.29;96192.22;4992971;28;20033;-46
2022/11/30 06:10:24;;;;;;;9.98;5.57;;;23.30;46.50;;;21.81;55.02;96194.09;4977963;28;20033;-46
2022/11/30 06:12:50;;;;;;;8.60;5.00;;;23.30;46.50;;;21.80;54.79;96186.31;5009867;28;20034;-49
2022/11/30 06:15:16;;;;;;;8.65;5.35;;;23.30;46.50;;;21.79;54.27;96182.03;4993328;28;20041;-45
2022/11/30 06:17:42;;;;;;;10.68;5.43;;;23.30;46.50;;;21.78;54.56;96191.94;4991365;28;20076;-48
2022/11/30 06:20:08;;;;;;;7.97;5.55;;;23.30;46.40;;;21.78;54.48;96181.22;4992574;28;20148;-46
2022/11/30 06:22:34;;;;;;;8.45;5.57;;;23.30;46.40;;;21.77;54.44;96187.66;4961155;28;20052;-46
2022/11/30 06:25:00;;;;;;;7.57;4.90;;;23.30;46.40;;;21.77;54.15;96190.31;4992840;28;20497;-47
2022/11/30 06:27:30;;;;;;;8.98;5.85;;;23.30;46.40;;;21.77;54.21;96195.69;4993119;28;20041;-46
2022/11/30 06:29:56;;;;;;;7.70;4.90;;;23.30;46.30;;;21.76;54.40;96199.41;4975999;28;20136;-49
2022/11/30 06:32:22;;;;;;;10.57;5.80;;;23.30;46.30;;;21.75;54.76;96197.81;4993094;28;20033;-47
2022/11/30 06:34:48;;;;;;;11.05;5.32;;;23.30;46.30;;;21.76;54.11;96193.25;4992608;28;20549;-47
2022/11/30 06:37:13;;;;;;;8.55;5.47;;;23.30;46.30;;;21.73;54.36;96193.75;4976866;28;20592;-49
2022/11/30 06:39:39;;;;;;;8.43;5.20;;;23.30;46.30;;;21.73;54.01;96191.91;5007711;28;20045;-46
2022/11/30 06:42:05;;;;;;;9.38;4.80;;;23.30;46.30;;;21.73;54.25;96183.88;5009091;28;20075;-45
2022/11/30 06:44:31;;;;;;;7.60;5.00;;;23.20;46.20;;;21.71;54.16;96191.31;5009328;28;20037;-46
2022/11/30 06:46:56;;;;;;;7.63;5.40;;;23.20;46.20;;;21.71;54.15;96196.69;5008949;28;20710;-48
2022/11/30 06:49:22;;;;;;;6.75;4.93;;;23.20;46.20;;;21.71;54.02;96191.31;5008146;28;20350;-46
2022/11/30 06:51:48;;;;;;;8.20;5.22;;;23.20;46.20;;;21.70;54.26;96192.41;5007837;28;20128;-46
2022/11/30 06:54:14;;;;;;;8.60;5.10;;;23.20;46.20;;;21.70;54.48;96206.59;4997453;28;20037;-49
2022/11/30 06:56:39;;;;;;;8.90;5.35;;;23.20;46.10;;;21.69;53.88;96202.28;5008951;28;20051;-47
2022/11/30 06:59:05;;;;;;;9.80;5.35;;;23.20;46.10;;;21.68;53.82;96200.69;5007847;28;20038;-50
2022/11/30 07:01:31;;;;;;;6.97;4.70;;;23.20;46.10;;;21.68;53.90;96205.22;5007896;28;20053;-49
2022/11/30 07:03:56;;;;;;;10.00;5.25;;;23.20;46.00;;;21.70;53.95;96189.72;4973035;28;20489;-47
2022/11/30 07:06:22;;;;;;;7.53;4.60;;;23.20;46.00;;;21.68;54.06;96203.34;4991381;28;20132;-47
2022/11/30 07:08:48;;;;;;;7.28;4.90;;;23.20;46.10;;;21.68;53.91;96215.94;5007933;28;20125;-48
2022/11/30 07:11:14;;;;;;;8.05;4.90;;;23.10;46.10;;;21.67;53.99;96217.00;5008178;28;20095;-48
2022/11/30 07:13:40;;;;;;;7.38;5.03;;;23.20;46.00;;;21.66;54.19;96216.19;4988601;28;20446;-47
2022/11/30 07:16:07;;;;;;;7.22;5.32;;;23.20;46.00;;;21.66;54.01;96221.56;5004878;28;20035;-48
2022/11/30 07:18:33;;;;;;;7.75;5.15;;;23.20;45.90;;;21.65;53.78;96216.44;5025532;28;20370;-47
2022/11/30 07:21:00;;;;;;;8.63;4.93;;;23.20;46.00;;;21.65;53.96;96219.94;5008333;28;20051;-47
2022/11/30 07:26:10;;;;;;;6.47;4.95;;;23.20;45.90;;;21.65;54.28;96219.13;5010057;28;20095;-49
2022/11/30 07:28:41;;;;;;;7.45;5.20;;;23.20;45.90;;;21.63;53.89;96216.72;5007674;28;20389;-48
2022/11/30 07:31:21;;;;;;;;;;;23.10;45.90;;;21.62;53.79;96216.97;4992334;28;20136;-48
2022/11/30 07:33:47;;;;;;;6.67;5.20;;;23.20;45.80;;;21.60;53.48;96227.13;5007399;28;19921;-46
2022/11/30 07:36:13;;;;;;;6.93;4.90;;;23.20;45.80;;;21.61;53.74;96224.19;5008082;28;20371;-48
2022/11/30 07:38:39;;;;;;;7.00;5.07;;;23.20;45.80;;;21.60;54.10;96221.78;5006201;28;20466;-48
2022/11/30 07:41:05;;;;;;;6.95;4.63;;;23.20;45.80;;;21.61;53.71;96223.38;4991414;28;20033;-47
2022/11/30 07:43:31;;;;;;;9.15;5.55;;;23.20;45.80;;;21.60;53.65;96222.59;5025387;28;20074;-47
2022/11/30 07:45:57;;;;;;;8.05;5.18;;;23.20;45.80;;;21.61;53.70;96226.88;5008645;28;20401;-49
2022/11/30 07:48:23;;;;;;;5.63;4.65;;;23.10;45.80;;;21.61;53.47;96228.75;4990689;28;20060;-51
2022/11/30 07:50:49;;;;;;;6.38;4.85;;;23.20;45.80;;;21.61;53.20;96228.75;5007810;28;20048;-48
2022/11/30 07:53:15;;;;;;;8.55;5.15;;;23.10;45.80;;;21.61;53.13;96228.75;4975452;28;20483;-49
2022/11/30 07:55:41;;;;;;;6.50;4.65;;;23.10;45.80;;;21.60;53.05;96232.47;4987618;28;20029;-47
2022/11/30 07:58:08;;;;;;;7.10;4.80;;;23.20;45.70;;;21.61;53.47;96226.88;5003616;28;20036;-47
2022/11/30 08:00:35;;;;;;;6.43;4.40;;;23.20;45.60;;;21.61;53.39;96224.19;4991379;28;20052;-50
2022/11/30 08:03:01;;;;;;;7.15;4.68;;;23.10;45.70;;;21.61;53.53;96218.03;4991634;28;20034;-46
2022/11/30 08:05:27;;;;;;;7.40;4.80;;;23.10;45.70;;;21.59;53.93;96218.28;5025268;28;20041;-46
2022/11/30 08:07:53;;;;;;;8.98;5.15;;;23.20;45.60;;;21.61;53.53;96228.75;5006530;28;20037;-49
2022/11/30 08:10:19;;;;;;;6.57;4.97;;;23.10;45.50;;;21.60;53.10;96227.94;4973460;28;20022;-50
2022/11/30 08:12:46;;;;;;;6.95;4.93;;;23.10;45.60;;;21.60;53.61;96227.13;4988209;28;20092;-48
2022/11/30 08:15:12;;;;;;;6.07;4.75;;;23.10;45.60;;;21.60;53.25;96230.63;5005016;28;20049;-48
2022/11/30 08:17:37;;;;;;;6.55;4.88;;;23.10;45.60;;;21.60;53.15;96237.84;5006522;28;20037;-47
2022/11/30 08:20:05;;;;;;;7.68;5.35;;;23.10;45.60;;;21.59;53.32;96231.69;4991298;28;20603;-47
2022/11/30 08:22:31;;;;;;;7.70;4.78;;;23.10;45.50;;;21.59;53.15;96230.88;5023548;28;20034;-47
2022/11/30 08:24:57;;;;;;;6.35;4.45;;;23.10;45.50;;;21.59;53.59;96231.69;4990881;28;20049;-45
2022/11/30 08:27:23;;;;;;;8.43;5.28;;;23.10;45.50;;;21.58;52.73;96235.41;4991024;28;20393;-48
2022/11/30 08:29:49;;;;;;;6.60;4.80;;;23.10;45.50;;;21.59;53.25;96230.88;5006127;28;20044;-46
2022/11/30 08:32:14;;;;;;;5.95;4.47;;;23.10;45.50;;;21.58;53.45;96232.75;4991230;28;20095;-49
2022/11/30 08:34:40;;;;;;;6.10;4.55;;;23.10;45.50;;;21.59;53.05;96233.53;5024681;28;20046;-46
2022/11/30 08:37:06;;;;;;;6.68;5.10;;;23.10;45.50;;;21.58;52.72;96238.09;5007441;28;20081;-47
2022/11/30 08:39:33;;;;;;;5.50;4.47;;;23.10;45.50;;;21.58;53.09;96234.63;5005652;28;20047;-46
2022/11/30 08:42:00;;;;;;;6.68;5.13;;;23.10;45.50;;;21.56;53.22;96234.06;5009175;28;20595;-47
2022/11/30 08:44:27;;;;;;;6.53;5.15;;;23.10;45.50;;;21.56;52.98;96242.09;5011934;28;20070;-49
2022/11/30 08:46:53;;;;;;;5.10;4.57;;;23.10;45.40;;;21.57;52.88;96243.69;5012122;28;20082;-48
2022/11/30 08:49:20;;;;;;;6.47;4.75;;;23.10;45.40;;;21.57;52.87;96246.38;4994966;28;20026;-46
2022/11/30 08:51:46;;;;;;;7.63;5.30;;;23.10;45.40;;;21.57;52.88;96249.06;4994965;28;20124;-46
2022/11/30 08:54:12;;;;;;;7.30;5.50;;;23.10;45.40;;;21.57;52.76;96249.06;4994330;28;20081;-47
2022/11/30 08:56:38;;;;;;;5.97;4.32;;;23.10;45.40;;;21.58;52.39;96250.66;4994049;28;20069;-47
2022/11/30 08:59:04;;;;;;;6.38;4.88;;;23.10;45.30;;;21.57;52.65;96254.41;4993319;28;20037;-48
2022/11/30 09:01:30;;;;;;;7.25;5.00;;;23.10;45.40;;;21.56;52.41;96252.78;4975855;28;20038;-49
2022/11/30 09:03:56;;;;;;;6.63;4.90;;;23.10;45.30;;;21.57;52.81;96259.75;5007241;28;20186;-48
2022/11/30 09:06:24;;;;;;;6.53;5.00;;;23.10;45.30;;;21.56;52.26;96267.00;4991534;28;20029;-49
2022/11/30 09:08:51;;;;;;;6.63;4.80;;;23.10;45.30;;;21.56;52.97;96258.16;4974406;28;20058;-49
2022/11/30 09:11:23;;;;;;;5.95;4.55;;;23.10;45.20;;;21.57;52.94;96262.44;4975312;28;20034;-47
2022/11/30 09:13:49;;;;;;;6.80;4.75;;;23.10;45.30;;;21.56;52.33;96266.19;4959184;28;20030;-46
2022/11/30 09:16:16;;;;;;;4.65;4.18;;;23.10;45.20;;;21.54;52.79;96260.28;4975334;28;20033;-47
2022/11/30 09:18:43;;;;;;;6.10;4.85;;;23.10;45.20;;;21.56;52.75;96263.50;4990056;28;20054;-48
2022/11/30 09:21:09;;;;;;;5.75;4.60;;;23.10;45.20;;;;;;4990999;28;20832;-48
2022/11/30 09:23:35;;;;;;;5.60;4.88;;;23.10;45.20;;;21.56;52.17;96260.81;4990564;28;20493;-46
2022/11/30 09:26:03;;;;;;;7.10;4.50;;;23.10;45.20;;;21.55;53.10;96272.59;4977955;28;20096;-46
2022/11/30 09:28:29;;;;;;;5.55;4.78;;;23.00;45.20;;;21.55;52.47;96272.59;4976441;28;20029;-46
2022/11/30 09:31:04;;;;;;;5.05;4.30;;;23.10;45.20;;;21.56;52.48;96268.84;5010017;28;20657;-46
2022/11/30 09:33:30;;;;;;;5.60;4.75;;;23.10;45.30;;;21.53;52.58;96259.47;5026658;28;20499;-47
2022/11/30 09:36:00;;;;;;;5.47;4.30;;;23.10;45.20;;;;;;4993212;28;20037;-49
2022/11/30 09:38:25;;;;;;;7.68;5.28;;;23.10;45.10;;;21.53;52.62;96254.13;5009892;28;20091;-48
2022/11/30 09:41:00;;;;;;;6.68;4.78;;;23.10;45.10;;;21.50;52.95;96248.44;4993896;28;20653;-47
2022/11/30 09:44:02;;;;;;;5.55;4.47;;;23.10;45.10;;;21.54;51.96;96255.72;5011011;28;20446;-47
2022/11/30 09:46:51;;;;;;;5.90;4.65;;;23.10;45.10;;;21.53;52.50;96254.13;4996355;28;20447;-46
2022/11/30 09:49:48;;;;;;;8.05;4.78;;;23.10;45.10;;;21.53;52.55;96242.59;4969160;28;20033;-46
2022/11/30 09:52:32;;;;;;;6.15;4.75;;;23.10;45.10;;;21.52;52.18;96249.03;5000723;28;20040;-47
2022/11/30 09:55:02;;;;;;;6.53;4.75;;;23.10;45.00;;;21.52;51.93;96252.50;4979045;28;20544;-47
2022/11/30 09:57:46;;;;;;;5.97;4.63;;;23.00;45.10;;;21.52;52.34;96249.03;4994883;28;20041;-46
2022/11/30 10:00:22;;;;;;;5.45;4.40;;;23.10;45.10;;;21.52;52.86;96247.16;5011483;28;20653;-48
2022/11/30 10:02:49;;;;;;;5.93;4.50;;;23.10;45.00;;;21.52;52.65;96254.38;4995505;28;20048;-45
2022/11/30 10:05:51;;;;;;;5.70;4.45;;;23.10;45.10;;;21.54;52.48;96238.88;4977531;28;20029;-46
2022/11/30 10:08:35;;;;;;;6.18;4.90;;;23.10;45.10;;;21.52;52.28;96246.34;5008462;28;20048;-47
2022/11/30 10:11:31;;;;;;;5.70;4.63;;;23.10;45.10;;;21.51;52.27;96240.19;5011466;28;20123;-45
2022/11/30 10:14:32;;;;;;;4.93;4.40;;;23.10;45.00;;;21.52;52.01;96241.78;5009146;28;20130;-46
2022/11/30 10:17:04;;;;;;;5.57;4.25;;;23.10;44.90;;;21.51;52.22;96244.72;4995700;28;20461;-46
2022/11/30 10:20:01;;;;;;;5.78;4.30;;;23.10;45.00;;;21.51;51.71;96250.09;5008730;28;20083;-46
2022/11/30 10:22:41;;;;;;;6.35;4.88;;;23.10;44.90;;;21.50;52.35;96243.09;5010549;28;20044;-47
2022/11/30 10:25:51;;;;;;;;;;;23.10;44.90;;;21.48;51.86;96239.84;5006497;28;20034;-46
2022/11/30 10:28:41;;;;;;;5.88;4.40;;;23.10;44.90;;;21.45;53.01;96246.53;5015465;28;19960;-46
2022/11/30 10:31:10;;;;;;;5.45;4.70;;;23.10;44.90;;;21.46;52.30;96241.97;5001772;28;20048;-48